Time;durP1;ratioP1;P1;durP2;ratioP2;P2;SDS_P1;SDS_P2;PMS_P1;PMS_P2;Temp;Humidity;BMP_temperature;BMP_pressure;BME280_temperature;BME280_humidity;BME280_pressure;Samples;Min_cycle;Max_cycle;Signal;HPM_P1;HPM_P2
2023/09/28 00:00:38;;;;;;;3.9;3.5;;;;;;;;;;;;;
2023/09/28 00:03:09;;;;;;;4.8;3;;;;;;;;;;;;;
2023/09/28 00:05:40;;;;;;;5;3.4;;;;;;;;;;;;;
2023/09/28 00:08:12;;;;;;;5.6;3.2;;;;;;;;;;;;;
2023/09/28 00:10:43;;;;;;;5.8;3.4;;;;;;;;;;;;;
2023/09/28 00:13:14;;;;;;;4.6;3;;;;;;;;;;;;;
2023/09/28 00:15:46;;;;;;;4.5;3;;;;;;;;;;;;;
2023/09/28 00:18:17;;;;;;;7;3.6;;;;;;;;;;;;;
2023/09/28 00:20:48;;;;;;;5.7;3.3;;;;;;;;;;;;;
2023/09/28 00:23:19;;;;;;;5.5;3.1;;;;;;;;;;;;;
2023/09/28 00:25:49;;;;;;;4.1;3;;;;;;;;;;;;;
2023/09/28 00:28:21;;;;;;;4.7;3.2;;;;;;;;;;;;;
2023/09/28 00:30:52;;;;;;;5.3;3.3;;;;;;;;;;;;;
2023/09/28 00:33:23;;;;;;;5.4;3.4;;;;;;;;;;;;;
2023/09/28 00:35:53;;;;;;;5.5;3.1;;;;;;;;;;;;;
2023/09/28 00:38:25;;;;;;;3.9;3.3;;;;;;;;;;;;;
2023/09/28 00:40:55;;;;;;;4.1;3.3;;;;;;;;;;;;;
2023/09/28 00:43:25;;;;;;;5.6;3.3;;;;;;;;;;;;;
2023/09/28 00:45:55;;;;;;;4.5;3.3;;;;;;;;;;;;;
2023/09/28 00:48:27;;;;;;;4.1;3.1;;;;;;;;;;;;;
2023/09/28 00:50:59;;;;;;;5.4;3.3;;;;;;;;;;;;;
2023/09/28 00:53:30;;;;;;;5.1;3.4;;;;;;;;;;;;;
2023/09/28 00:56:02;;;;;;;3.9;3.4;;;;;;;;;;;;;
2023/09/28 00:58:33;;;;;;;5.4;3.4;;;;;;;;;;;;;
2023/09/28 01:01:06;;;;;;;4.8;3.3;;;;;;;;;;;;;
2023/09/28 01:03:37;;;;;;;6.5;3.4;;;;;;;;;;;;;
2023/09/28 01:06:08;;;;;;;6.1;4;;;;;;;;;;;;;
2023/09/28 01:08:39;;;;;;;7;6.2;;;;;;;;;;;;;
2023/09/28 01:11:10;;;;;;;4.9;3.6;;;;;;;;;;;;;
2023/09/28 01:13:41;;;;;;;4.9;3.3;;;;;;;;;;;;;
2023/09/28 01:16:13;;;;;;;4.9;3.2;;;;;;;;;;;;;
2023/09/28 01:18:44;;;;;;;4.5;3.1;;;;;;;;;;;;;
2023/09/28 01:21:14;;;;;;;4.3;3.1;;;;;;;;;;;;;
2023/09/28 01:23:45;;;;;;;4.2;3.1;;;;;;;;;;;;;
2023/09/28 01:26:15;;;;;;;3.7;3.1;;;;;;;;;;;;;
2023/09/28 01:28:45;;;;;;;4.2;3.2;;;;;;;;;;;;;
2023/09/28 01:31:16;;;;;;;5.3;3.6;;;;;;;;;;;;;
2023/09/28 01:33:46;;;;;;;5.6;3.3;;;;;;;;;;;;;
2023/09/28 01:36:17;;;;;;;4.7;2.9;;;;;;;;;;;;;
2023/09/28 01:38:52;;;;;;;4.2;2.9;;;;;;;;;;;;;
2023/09/28 01:41:22;;;;;;;4.4;3.3;;;;;;;;;;;;;
2023/09/28 01:43:53;;;;;;;4.3;3;;;;;;;;;;;;;
2023/09/28 01:46:23;;;;;;;4.9;3;;;;;;;;;;;;;
2023/09/28 01:48:52;;;;;;;5.7;3.6;;;;;;;;;;;;;
2023/09/28 01:51:23;;;;;;;5.5;3.1;;;;;;;;;;;;;
2023/09/28 01:53:53;;;;;;;4.6;3.2;;;;;;;;;;;;;
2023/09/28 01:56:23;;;;;;;6.1;3.1;;;;;;;;;;;;;
2023/09/28 01:58:53;;;;;;;6.2;3.3;;;;;;;;;;;;;
2023/09/28 02:01:23;;;;;;;4.5;3.2;;;;;;;;;;;;;
2023/09/28 02:03:53;;;;;;;5.6;3.5;;;;;;;;;;;;;
2023/09/28 02:06:24;;;;;;;4;2.9;;;;;;;;;;;;;
2023/09/28 02:08:48;;;;;;;5.6;3.3;;;;;;;;;;;;;
2023/09/28 02:11:17;;;;;;;5;3.5;;;;;;;;;;;;;
2023/09/28 02:13:42;;;;;;;6.1;3.5;;;;;;;;;;;;;
2023/09/28 02:16:12;;;;;;;4.4;3.3;;;;;;;;;;;;;
2023/09/28 02:18:41;;;;;;;4.7;3.1;;;;;;;;;;;;;
2023/09/28 02:21:05;;;;;;;4.9;3.3;;;;;;;;;;;;;
2023/09/28 02:23:33;;;;;;;4.2;3.2;;;;;;;;;;;;;
2023/09/28 02:25:58;;;;;;;4;3.3;;;;;;;;;;;;;
2023/09/28 02:28:25;;;;;;;5.9;3.5;;;;;;;;;;;;;
2023/09/28 02:30:50;;;;;;;5.4;3.2;;;;;;;;;;;;;
2023/09/28 02:33:15;;;;;;;5.7;3.3;;;;;;;;;;;;;
2023/09/28 02:35:40;;;;;;;4.9;3.2;;;;;;;;;;;;;
2023/09/28 02:38:06;;;;;;;6;3.1;;;;;;;;;;;;;
2023/09/28 02:40:31;;;;;;;4.4;3.2;;;;;;;;;;;;;
2023/09/28 02:43:00;;;;;;;4;3.2;;;;;;;;;;;;;
2023/09/28 02:45:25;;;;;;;3.6;3.3;;;;;;;;;;;;;
2023/09/28 02:47:50;;;;;;;5.8;3.5;;;;;;;;;;;;;
2023/09/28 02:50:16;;;;;;;5.2;3;;;;;;;;;;;;;
2023/09/28 02:52:42;;;;;;;4.3;3;;;;;;;;;;;;;
2023/09/28 02:55:08;;;;;;;4.7;2.8;;;;;;;;;;;;;
2023/09/28 02:57:31;;;;;;;3.9;2.9;;;;;;;;;;;;;
2023/09/28 02:59:57;;;;;;;5.4;3.3;;;;;;;;;;;;;
2023/09/28 03:02:22;;;;;;;4.9;3.4;;;;;;;;;;;;;
2023/09/28 03:04:48;;;;;;;3.4;2.9;;;;;;;;;;;;;
2023/09/28 03:07:13;;;;;;;4;3.1;;;;;;;;;;;;;
2023/09/28 03:09:38;;;;;;;4.9;2.9;;;;;;;;;;;;;
2023/09/28 03:12:03;;;;;;;4.4;3;;;;;;;;;;;;;
2023/09/28 03:14:31;;;;;;;4.6;3.3;;;;;;;;;;;;;
2023/09/28 03:16:56;;;;;;;4;3.1;;;;;;;;;;;;;
2023/09/28 03:19:21;;;;;;;4.5;3.3;;;;;;;;;;;;;
2023/09/28 03:21:46;;;;;;;5.2;3;;;;;;;;;;;;;
2023/09/28 03:24:12;;;;;;;5.5;3.3;;;;;;;;;;;;;
2023/09/28 03:26:37;;;;;;;5.4;3.4;;;;;;;;;;;;;
2023/09/28 03:29:03;;;;;;;5;3.4;;;;;;;;;;;;;
2023/09/28 03:31:32;;;;;;;4.1;3.1;;;;;;;;;;;;;
2023/09/28 03:33:54;;;;;;;5.3;3.2;;;;;;;;;;;;;
2023/09/28 03:36:21;;;;;;;4.4;3.2;;;;;;;;;;;;;
2023/09/28 03:38:46;;;;;;;4.1;2.8;;;;;;;;;;;;;
2023/09/28 03:41:13;;;;;;;4.3;3.1;;;;;;;;;;;;;
2023/09/28 03:43:38;;;;;;;6.2;3.5;;;;;;;;;;;;;
2023/09/28 03:46:03;;;;;;;4.4;2.9;;;;;;;;;;;;;
2023/09/28 03:48:28;;;;;;;6.5;3.3;;;;;;;;;;;;;
2023/09/28 03:50:56;;;;;;;6.3;3;;;;;;;;;;;;;
2023/09/28 03:53:20;;;;;;;4.7;2.9;;;;;;;;;;;;;
2023/09/28 03:55:45;;;;;;;6.7;3.4;;;;;;;;;;;;;
2023/09/28 03:58:10;;;;;;;5.2;3.4;;;;;;;;;;;;;
2023/09/28 04:02:39;;;;;;;5.1;3.1;;;;;;;12.19;100;941.4025;;;;
2023/09/28 04:05:05;;;;;;;4.8;3.2;;;;;;;12.28;100;941.4722;;;;
2023/09/28 04:07:29;;;;;;;5.1;3.2;;;;;;;12.24;100;941.4615;;;;
2023/09/28 04:09:56;;;;;;;4.1;3.3;;;;;;;12.17;100;941.5094;;;;
2023/09/28 04:12:27;;;;;;;5.8;3.2;;;;;;;12.11;100;941.5751;;;;
2023/09/28 04:14:54;;;;;;;5.7;3.4;;;;;;;11.88;100;941.5488;;;;
2023/09/28 04:17:20;;;;;;;4.5;3.5;;;;;;;12.01;100;941.6002;;;;
2023/09/28 04:19:46;;;;;;;6;3.4;;;;;;;11.97;100;941.6127;;;;
2023/09/28 04:22:11;;;;;;;5.8;3.4;;;;;;;11.92;100;941.6217;;;;
2023/09/28 04:24:36;;;;;;;6.9;3.2;;;;;;;11.85;100;941.6155;;;;
2023/09/28 04:27:02;;;;;;;4.2;3.5;;;;;;;11.96;100;941.6238;;;;
2023/09/28 04:29:33;;;;;;;5.7;3;;;;;;;12.03;100;941.6445;;;;
2023/09/28 04:32:00;;;;;;;5.4;3.6;;;;;;;12.17;100;941.6403;;;;
2023/09/28 04:34:25;;;;;;;5.5;3.1;;;;;;;12.2;100;941.5806;;;;
2023/09/28 04:36:54;;;;;;;4.2;3.1;;;;;;;12.33;100;941.6299;;;;
2023/09/28 04:39:26;;;;;;;4.9;2.8;;;;;;;12.32;99.78906;941.625;;;;
2023/09/28 04:41:54;;;;;;;5.1;3.3;;;;;;;12.14;100;941.6144;;;;
2023/09/28 04:44:19;;;;;;;4.5;3.2;;;;;;;12.13;100;941.6383;;;;
2023/09/28 04:46:52;;;;;;;5.4;3.1;;;;;;;12.1;100;941.642;;;;
2023/09/28 04:49:21;;;;;;;4.1;3.3;;;;;;;12.21;100;941.6334;;;;
2023/09/28 04:51:47;;;;;;;8.2;3.3;;;;;;;12.22;100;941.6682;;;;
2023/09/28 04:54:17;;;;;;;6;3.4;;;;;;;12.12;100;941.6558;;;;
2023/09/28 04:56:43;;;;;;;3.9;3;;;;;;;12.01;100;941.6306;;;;
2023/09/28 04:59:14;;;;;;;6.7;3.3;;;;;;;12.01;100;941.601;;;;
2023/09/28 05:01:39;;;;;;;6.2;3.4;;;;;;;12.08;100;941.6339;;;;
2023/09/28 05:04:11;;;;;;;6.9;3.7;;;;;;;12.11;100;941.5671;;;;
2023/09/28 05:06:35;;;;;;;5.8;3.3;;;;;;;12.17;100;941.649;;;;
2023/09/28 05:09:02;;;;;;;6.2;3.6;;;;;;;12.07;100;941.6625;;;;
2023/09/28 05:11:27;;;;;;;5.1;3.3;;;;;;;12.23;100;941.6234;;;;
2023/09/28 05:13:56;;;;;;;6.2;3.5;;;;;;;12.32;100;941.6058;;;;
2023/09/28 05:16:21;;;;;;;6.2;3.9;;;;;;;12.36;100;941.678;;;;
2023/09/28 05:18:47;;;;;;;5.7;3.4;;;;;;;12.32;100;941.6682;;;;
2023/09/28 05:21:12;;;;;;;7.2;3;;;;;;;12.34;100;941.6683;;;;
2023/09/28 05:23:40;;;;;;;6.4;3.3;;;;;;;12.34;100;941.626;;;;
2023/09/28 05:26:05;;;;;;;6.1;3.1;;;;;;;12.4;100;941.5217;;;;
2023/09/28 05:28:36;;;;;;;4.7;3.2;;;;;;;12.39;100;941.5944;;;;
2023/09/28 05:31:04;;;;;;;5;3.5;;;;;;;12.54;99.69043;941.5447;;;;
2023/09/28 05:33:29;;;;;;;4.9;3.4;;;;;;;12.62;98.66504;941.6295;;;;
2023/09/28 05:35:54;;;;;;;14.8;6.5;;;;;;;12.51;98.31934;941.5924;;;;
2023/09/28 05:38:21;;;;;;;17;7.2;;;;;;;12.53;97.83008;941.5837;;;;
2023/09/28 05:40:46;;;;;;;21.4;8.9;;;;;;;12.43;98.2793;941.5272;;;;
2023/09/28 05:43:15;;;;;;;19.7;9;;;;;;;12.56;98.50098;941.5361;;;;
2023/09/28 05:45:40;;;;;;;14.9;7.3;;;;;;;12.62;98.37793;941.6287;;;;
2023/09/28 05:48:10;;;;;;;15.3;7.6;;;;;;;12.63;98.48535;941.6735;;;;
2023/09/28 05:50:40;;;;;;;12;6;;;;;;;12.85;98.20117;941.7272;;;;
2023/09/28 05:53:05;;;;;;;8;5;;;;;;;13;97.76563;941.6689;;;;
2023/09/28 05:55:32;;;;;;;6.7;3.8;;;;;;;13.31;96.375;941.6665;;;;
2023/09/28 05:57:57;;;;;;;6.1;3.5;;;;;;;13.39;95.63281;941.7396;;;;
2023/09/28 06:00:27;;;;;;;6.3;3.7;;;;;;;13.58;95.16992;941.7622;;;;
2023/09/28 06:02:55;;;;;;;5.2;3.5;;;;;;;13.82;93.18555;941.6947;;;;
2023/09/28 06:05:25;;;;;;;7.3;3.9;;;;;;;13.99;92.78418;941.7502;;;;
2023/09/28 06:07:50;;;;;;;4.5;3.1;;;;;;;13.96;92.39941;941.7894;;;;
2023/09/28 06:10:18;;;;;;;4.8;3;;;;;;;14.12;91.93652;941.8164;;;;
2023/09/28 06:12:43;;;;;;;6.7;3.2;;;;;;;14.07;91.38574;941.7891;;;;
2023/09/28 06:15:14;;;;;;;4.3;2.8;;;;;;;14.04;91.73535;941.7067;;;;
2023/09/28 06:17:44;;;;;;;4;2.9;;;;;;;13.99;92.15137;941.7311;;;;
2023/09/28 06:20:17;;;;;;;5.7;2.9;;;;;;;14.03;92.76758;941.713;;;;
2023/09/28 06:22:41;;;;;;;6.1;3.2;;;;;;;14.23;92.55859;941.728;;;;
2023/09/28 06:25:16;;;;;;;6;3;;;;;;;14.34;92.70996;941.6951;;;;
2023/09/28 06:27:43;;;;;;;5;2.7;;;;;;;14.54;91.11523;941.6678;;;;
2023/09/28 06:30:09;;;;;;;4.1;2.7;;;;;;;14.7;90.29492;941.7;;;;
2023/09/28 06:32:38;;;;;;;5.8;2.8;;;;;;;14.69;90.08496;941.7128;;;;
2023/09/28 06:35:03;;;;;;;4.3;2.6;;;;;;;14.69;90.47949;941.696;;;;
2023/09/28 06:37:30;;;;;;;6.8;2.8;;;;;;;14.63;91.11133;941.7466;;;;
2023/09/28 06:39:55;;;;;;;5.4;2.8;;;;;;;14.63;91.78027;941.7626;;;;
2023/09/28 06:42:23;;;;;;;4.1;2.9;;;;;;;14.84;91.58105;941.7081;;;;
2023/09/28 06:44:48;;;;;;;7.5;3.2;;;;;;;14.95;90.95801;941.8098;;;;
2023/09/28 06:47:19;;;;;;;7.4;4.3;;;;;;;14.99;90.4375;941.8025;;;;
2023/09/28 06:49:49;;;;;;;4.2;3;;;;;;;15.15;89.61719;941.8842;;;;
2023/09/28 06:52:14;;;;;;;5.2;3.4;;;;;;;15.21;88.58887;941.8978;;;;
2023/09/28 06:54:41;;;;;;;4.7;2.8;;;;;;;15.29;87.79785;941.788;;;;
2023/09/28 06:57:07;;;;;;;5.8;3;;;;;;;15.51;87.49512;941.8934;;;;
2023/09/28 06:59:31;;;;;;;7.1;3.8;;;;;;;15.75;86.71191;941.8649;;;;
2023/09/28 07:01:56;;;;;;;7.1;3.5;;;;;;;16.15;85.32129;941.8777;;;;
2023/09/28 07:04:22;;;;;;;4.4;2.7;;;;;;;16.28;85.2207;941.9263;;;;
2023/09/28 07:06:48;;;;;;;4.5;2.9;;;;;;;16.13;83.12012;941.943;;;;
2023/09/28 07:09:12;;;;;;;5.6;2.7;;;;;;;16.35;82.76855;941.9426;;;;
2023/09/28 07:11:39;;;;;;;4.9;2.5;;;;;;;16.42;81.13867;941.9328;;;;
2023/09/28 07:14:04;;;;;;;5.3;3.1;;;;;;;16.7;80.91211;941.9771;;;;
2023/09/28 07:16:29;;;;;;;5.7;3.2;;;;;;;16.83;80.24219;942.0414;;;;
2023/09/28 07:18:54;;;;;;;5.4;2.9;;;;;;;16.57;80.77148;942.0064;;;;
2023/09/28 07:21:25;;;;;;;5.5;2.9;;;;;;;16.57;80.86426;942.0258;;;;
2023/09/28 07:23:53;;;;;;;4;2.9;;;;;;;16.82;79.86816;942.0544;;;;
2023/09/28 07:26:18;;;;;;;4.2;2.6;;;;;;;17.05;78.92383;942.0212;;;;
2023/09/28 07:28:49;;;;;;;5.1;2.6;;;;;;;17.46;78.07129;942.0733;;;;
2023/09/28 07:31:20;;;;;;;4.7;2.6;;;;;;;17.74;75.70605;942.0045;;;;
2023/09/28 07:33:43;;;;;;;8.1;2.9;;;;;;;18.37;78.02344;942.0284;;;;
2023/09/28 07:36:12;;;;;;;6;3.1;;;;;;;18.83;74.25391;942.033;;;;
2023/09/28 07:38:37;;;;;;;4.7;2.6;;;;;;;18.51;72.22168;942.0678;;;;
2023/09/28 07:41:06;;;;;;;3.8;2.4;;;;;;;18.73;71.93359;942.0449;;;;
2023/09/28 07:43:31;;;;;;;4.7;2.4;;;;;;;18.99;71.625;942.0183;;;;
2023/09/28 07:45:57;;;;;;;6.1;2.6;;;;;;;19.32;69.50098;942.0399;;;;
2023/09/28 07:48:22;;;;;;;5.3;2.9;;;;;;;19.76;69.83789;942.05;;;;
2023/09/28 07:50:48;;;;;;;4.7;2.5;;;;;;;20.12;67.44531;942.0059;;;;
2023/09/28 07:53:13;;;;;;;5.8;2.7;;;;;;;20.43;67.00293;941.9886;;;;
2023/09/28 07:55:39;;;;;;;3.7;2.8;;;;;;;20.39;64.71875;942.0035;;;;
2023/09/28 07:58:04;;;;;;;6;2.4;;;;;;;20.73;65.29492;941.9788;;;;
2023/09/28 08:00:33;;;;;;;5.8;2.6;;;;;;;20.76;63.59082;941.9313;;;;
2023/09/28 08:02:58;;;;;;;5.7;3;;;;;;;20.95;62.60254;941.8823;;;;
2023/09/28 08:05:25;;;;;;;6.3;2.7;;;;;;;21.57;62.61914;941.8706;;;;
2023/09/28 08:07:50;;;;;;;5.9;2.6;;;;;;;21.54;60.33203;941.7546;;;;
2023/09/28 08:10:15;;;;;;;4.4;2.1;;;;;;;21.33;60.31445;941.8315;;;;
2023/09/28 08:12:42;;;;;;;4.9;2.6;;;;;;;21.03;60.77637;941.747;;;;
2023/09/28 08:15:11;;;;;;;4.2;2.4;;;;;;;21.04;62.42676;941.7808;;;;
2023/09/28 08:17:44;;;;;;;2.6;2.3;;;;;;;21.5;61.08789;941.6731;;;;
2023/09/28 08:20:06;;;;;;;4.5;2.7;;;;;;;21.86;59.75586;941.7098;;;;
2023/09/28 08:22:35;;;;;;;4.8;2.2;;;;;;;22.15;58.71484;941.7336;;;;
2023/09/28 08:25:00;;;;;;;3.2;2.1;;;;;;;22.2;57.71289;941.6672;;;;
2023/09/28 08:29:37;;;;;;;4.1;2.4;;;;;;;21.8;59.13672;941.5338;;;;
2023/09/28 08:32:00;;;;;;;5.1;2.3;;;;;;;21.97;57.39063;941.5437;;;;
2023/09/28 08:34:27;;;;;;;4.7;2.4;;;;;;;22.13;59.82617;941.5971;;;;
2023/09/28 08:36:52;;;;;;;4;2.1;;;;;;;22.22;57.58691;941.5556;;;;
2023/09/28 08:39:20;;;;;;;3.6;2.1;;;;;;;22.54;56.19629;941.5009;;;;
2023/09/28 08:41:46;;;;;;;3.3;2.3;;;;;;;22.12;57.06934;941.517;;;;
2023/09/28 08:44:11;;;;;;;3.9;2.5;;;;;;;22.47;57.6543;941.4916;;;;
2023/09/28 08:46:38;;;;;;;5.7;2.1;;;;;;;22.11;56.64648;941.5532;;;;
2023/09/28 08:49:05;;;;;;;3.9;3.3;;;;;;;21.78;57.88184;941.5748;;;;
2023/09/28 08:51:26;;;;;;;3.4;2.3;;;;;;;21.95;58.43066;941.584;;;;
2023/09/28 08:53:53;;;;;;;6.3;2.6;;;;;;;21.49;58.83789;941.6225;;;;
2023/09/28 08:56:18;;;;;;;3.9;2.2;;;;;;;21.66;59.8457;941.6099;;;;
2023/09/28 08:58:47;;;;;;;5.9;2.5;;;;;;;21.8;60.14355;941.611;;;;
2023/09/28 09:01:15;;;;;;;3.8;2.2;;;;;;;21.85;59.94043;941.6438;;;;
2023/09/28 09:03:40;;;;;;;4.5;2.2;;;;;;;21.46;59.74707;941.633;;;;
2023/09/28 09:06:08;;;;;;;4.4;2.2;;;;;;;21.25;60.63184;941.7104;;;;
2023/09/28 09:08:33;;;;;;;3.3;2;;;;;;;21.19;62.15527;941.6912;;;;
2023/09/28 09:10:59;;;;;;;5.4;2.7;;;;;;;21.28;62.85938;941.623;;;;
2023/09/28 09:13:27;;;;;;;3.1;2.2;;;;;;;21.42;60.83008;941.6856;;;;
2023/09/28 09:15:55;;;;;;;3.3;2.1;;;;;;;21.55;60.09961;941.6322;;;;
2023/09/28 09:18:21;;;;;;;3.4;2.3;;;;;;;21.83;60.81641;941.6231;;;;
2023/09/28 09:20:48;;;;;;;3.2;2.1;;;;;;;21.74;58.70801;941.6125;;;;
2023/09/28 09:23:13;;;;;;;3.9;2.3;;;;;;;21.78;59.75586;941.5699;;;;
2023/09/28 09:25:39;;;;;;;3.4;2.2;;;;;;;22.15;58.72656;941.5447;;;;
2023/09/28 09:28:04;;;;;;;5;2.3;;;;;;;22.52;59.76074;941.4764;;;;
2023/09/28 09:30:35;;;;;;;3.6;2.1;;;;;;;22.37;56.65625;941.5691;;;;
2023/09/28 09:32:58;;;;;;;3.9;2.2;;;;;;;22.38;58.05371;941.525;;;;
2023/09/28 09:35:27;;;;;;;2.8;2.1;;;;;;;22.83;58.6875;941.5379;;;;
2023/09/28 09:37:50;;;;;;;4.2;2.4;;;;;;;22.99;57.33398;941.4359;;;;
2023/09/28 09:40:17;;;;;;;4.2;2.5;;;;;;;22.76;56.40039;941.4373;;;;
2023/09/28 09:42:42;;;;;;;3.2;2.1;;;;;;;22.97;55.26367;941.4489;;;;
2023/09/28 09:45:13;;;;;;;3.9;2.3;;;;;;;23.35;57.95703;941.4419;;;;
2023/09/28 09:47:39;;;;;;;11.1;6.1;;;;;;;23.41;54.57813;941.3856;;;;
2023/09/28 09:50:03;;;;;;;5.4;2.7;;;;;;;23.62;55.76953;941.3655;;;;
2023/09/28 09:52:29;;;;;;;4.2;2.4;;;;;;;23.78;53.83496;941.3317;;;;
2023/09/28 09:54:59;;;;;;;4.7;2;;;;;;;23.98;54.1416;941.3519;;;;
2023/09/28 09:57:27;;;;;;;4.1;2.4;;;;;;;23.89;51.17676;941.3246;;;;
2023/09/28 09:59:50;;;;;;;5.2;2.4;;;;;;;23.56;53.59766;941.2927;;;;
2023/09/28 10:02:15;;;;;;;3.6;2;;;;;;;24.01;54.01563;941.2615;;;;
2023/09/28 10:04:41;;;;;;;3.3;2.3;;;;;;;24.17;52.76367;941.2849;;;;
2023/09/28 10:07:07;;;;;;;4.4;2.2;;;;;;;24.17;53.06934;941.2737;;;;
2023/09/28 10:09:32;;;;;;;3;2.1;;;;;;;24.29;52.57715;941.2475;;;;
2023/09/28 10:11:57;;;;;;;6.1;2.7;;;;;;;24.48;51.11426;941.1429;;;;
2023/09/28 10:14:24;;;;;;;5.7;2.7;;;;;;;24.61;53.28711;941.1897;;;;
2023/09/28 10:16:49;;;;;;;2.7;2.1;;;;;;;24.58;53.6377;941.194;;;;
2023/09/28 10:19:19;;;;;;;5.7;2.2;;;;;;;24.74;52.40723;941.1772;;;;
2023/09/28 10:21:42;;;;;;;4.9;2.5;;;;;;;24.57;54.62598;941.175;;;;
2023/09/28 10:24:04;;;;;;;2.9;2.1;;;;;;;24.55;53.52734;941.0991;;;;
2023/09/28 10:26:30;;;;;;;4;2.4;;;;;;;24.81;52.10645;941.0483;;;;
2023/09/28 10:28:57;;;;;;;4.1;2.4;;;;;;;24.81;51.02344;941.088;;;;
2023/09/28 10:31:22;;;;;;;3.7;2.5;;;;;;;24.56;50.71191;941.1239;;;;
2023/09/28 10:33:48;;;;;;;6.5;2.1;;;;;;;24.63;51.80273;941.1556;;;;
2023/09/28 10:36:13;;;;;;;4.6;2;;;;;;;25.39;47.88867;941.1089;;;;
2023/09/28 10:38:39;;;;;;;3.9;1.9;;;;;;;26.79;43.54883;941.0947;;;;
2023/09/28 10:41:04;;;;;;;2.6;2;;;;;;;27.66;43.63281;941.097;;;;
2023/09/28 10:43:30;;;;;;;4.4;2.1;;;;;;;27.96;44.07813;941.1476;;;;
2023/09/28 10:45:57;;;;;;;3.5;2.3;;;;;;;28.37;42.40625;941.0477;;;;
2023/09/28 10:48:22;;;;;;;3.6;2.2;;;;;;;27.7;43.69629;941.0743;;;;
2023/09/28 10:50:48;;;;;;;4;2.2;;;;;;;27.81;41.4873;941.0733;;;;
2023/09/28 10:53:14;;;;;;;3.5;2.4;;;;;;;28.08;41.11914;941.0483;;;;
2023/09/28 10:55:41;;;;;;;3.1;1.9;;;;;;;28.27;39.79297;941.1121;;;;
2023/09/28 10:58:09;;;;;;;4.1;2.2;;;;;;;27.63;39.46387;941.0583;;;;
2023/09/28 11:00:32;;;;;;;2.7;1.8;;;;;;;27.51;41.19824;941.0803;;;;
2023/09/28 11:02:59;;;;;;;2.6;1.7;;;;;;;27.39;42.91895;941.0447;;;;
2023/09/28 11:05:24;;;;;;;3.4;1.9;;;;;;;27.47;41.5625;941.0826;;;;
2023/09/28 11:07:51;;;;;;;3.1;1.9;;;;;;;27.09;40.15234;941.0695;;;;
2023/09/28 11:10:17;;;;;;;2;1.7;;;;;;;26.64;39.29492;941.0717;;;;
2023/09/28 11:12:45;;;;;;;4.7;2.3;;;;;;;26.74;41.57715;941.032;;;;
2023/09/28 11:15:14;;;;;;;3.1;2.1;;;;;;;27.38;40.85352;940.9978;;;;
2023/09/28 11:17:37;;;;;;;2.4;1.9;;;;;;;27.54;40.33496;940.9855;;;;
2023/09/28 11:20:02;;;;;;;3.3;2.1;;;;;;;27.27;42.3623;940.9762;;;;
2023/09/28 11:22:31;;;;;;;2.1;1.9;;;;;;;27.56;40.00293;940.9037;;;;
2023/09/28 11:24:56;;;;;;;3.7;2.3;;;;;;;27.54;40.72656;940.9674;;;;
2023/09/28 11:27:21;;;;;;;2.7;2;;;;;;;27.21;40.81445;940.9701;;;;
2023/09/28 11:29:48;;;;;;;2.7;2.1;;;;;;;27.16;42.31543;940.9442;;;;
2023/09/28 11:32:17;;;;;;;4.2;2.2;;;;;;;27.11;41.75391;940.9337;;;;
2023/09/28 11:34:41;;;;;;;3;2;;;;;;;26.43;45.09961;940.9609;;;;
2023/09/28 11:37:06;;;;;;;3.8;2.2;;;;;;;26.54;42.55371;940.9456;;;;
2023/09/28 11:39:31;;;;;;;3.2;2.2;;;;;;;26.97;43.39941;940.9377;;;;
2023/09/28 11:41:59;;;;;;;2.5;2.1;;;;;;;27.32;42.49707;940.871;;;;
2023/09/28 11:44:24;;;;;;;3.7;2.3;;;;;;;27.06;44.53516;940.9614;;;;
2023/09/28 11:46:49;;;;;;;3.5;2;;;;;;;26.7;45.60059;940.9515;;;;
2023/09/28 11:49:16;;;;;;;4.9;2.3;;;;;;;26.45;45.16113;940.8596;;;;
2023/09/28 11:51:41;;;;;;;4.1;2.7;;;;;;;27.07;40.65918;940.9308;;;;
2023/09/28 11:54:06;;;;;;;3.7;1.9;;;;;;;27.55;39.37402;940.8745;;;;
2023/09/28 11:56:34;;;;;;;4.1;2.2;;;;;;;27.22;43.04492;940.875;;;;
2023/09/28 11:58:58;;;;;;;3.9;2.2;;;;;;;27.69;40.4668;940.8318;;;;
2023/09/28 12:01:25;;;;;;;2.9;2.2;;;;;;;28.12;38.09277;940.8586;;;;
2023/09/28 12:03:49;;;;;;;3.6;2.4;;;;;;;28.01;38.59473;940.8586;;;;
2023/09/28 12:06:14;;;;;;;4.6;2;;;;;;;27.66;41.48438;940.8431;;;;
2023/09/28 12:08:42;;;;;;;2.1;1.8;;;;;;;27.69;40.63281;940.8329;;;;
2023/09/28 12:11:07;;;;;;;3.6;2.1;;;;;;;27.64;39.00195;940.8624;;;;
2023/09/28 12:13:33;;;;;;;2.2;1.8;;;;;;;27.56;41.57031;940.8152;;;;
2023/09/28 12:16:00;;;;;;;2.9;1.8;;;;;;;27.22;39.6416;940.7773;;;;
2023/09/28 12:18:25;;;;;;;2.3;1.8;;;;;;;27.58;39.66113;940.7456;;;;
2023/09/28 12:20:50;;;;;;;2.9;1.9;;;;;;;27.89;38.85742;940.7699;;;;
2023/09/28 12:23:19;;;;;;;2.8;1.9;;;;;;;28.37;38.88672;940.7144;;;;
2023/09/28 12:25:44;;;;;;;2.8;2.2;;;;;;;28.56;37.29785;940.7462;;;;
2023/09/28 12:28:12;;;;;;;2.5;1.9;;;;;;;28.73;37.60938;940.7009;;;;
2023/09/28 12:30:37;;;;;;;3.2;1.8;;;;;;;28.58;37.14551;940.6746;;;;
2023/09/28 12:33:04;;;;;;;4.2;2.1;;;;;;;28.29;38.19043;940.5588;;;;
2023/09/28 12:35:28;;;;;;;3.2;1.9;;;;;;;28.46;37.83594;940.5399;;;;
2023/09/28 12:37:55;;;;;;;2.6;2;;;;;;;28.31;39.1084;940.5012;;;;
2023/09/28 12:40:20;;;;;;;3;2;;;;;;;28.46;38.51367;940.5261;;;;
2023/09/28 12:42:49;;;;;;;4.2;2;;;;;;;27.5;41.99219;940.496;;;;
2023/09/28 12:45:13;;;;;;;4.8;2.2;;;;;;;27.87;39.5332;940.5023;;;;
2023/09/28 12:47:40;;;;;;;2.9;1.8;;;;;;;28.29;39.32031;940.5136;;;;
2023/09/28 12:50:05;;;;;;;3;1.8;;;;;;;28.3;38.29785;940.4888;;;;
2023/09/28 12:52:33;;;;;;;3.8;2.3;;;;;;;28.03;40.4502;940.4667;;;;
2023/09/28 12:54:57;;;;;;;6.1;2.2;;;;;;;27.85;40.21973;940.3989;;;;
2023/09/28 12:57:25;;;;;;;2.5;1.9;;;;;;;27.95;40.01465;940.4205;;;;
2023/09/28 12:59:50;;;;;;;4;2;;;;;;;27.86;39.85254;940.4153;;;;
2023/09/28 13:02:15;;;;;;;2.7;1.8;;;;;;;27.86;41.24219;940.3679;;;;
2023/09/28 13:04:41;;;;;;;2.9;2;;;;;;;27.29;42.3877;940.2786;;;;
2023/09/28 13:07:07;;;;;;;3.6;2.5;;;;;;;27.37;40.6748;940.1866;;;;
2023/09/28 13:09:33;;;;;;;3.2;2.1;;;;;;;27.62;40.61426;940.1969;;;;
2023/09/28 13:11:58;;;;;;;3.2;2.2;;;;;;;27.12;41.5293;940.1569;;;;
2023/09/28 13:14:26;;;;;;;2.8;1.9;;;;;;;27.21;41.82227;940.1559;;;;
2023/09/28 13:16:50;;;;;;;3.6;2;;;;;;;27.41;41.03418;940.2028;;;;
2023/09/28 13:19:18;;;;;;;3.4;2;;;;;;;27.49;41.125;940.1693;;;;
2023/09/28 13:21:42;;;;;;;2.8;2;;;;;;;27.65;42.36133;940.2704;;;;
2023/09/28 13:24:12;;;;;;;3.4;2;;;;;;;27.35;42.60645;940.187;;;;
2023/09/28 13:26:38;;;;;;;4.3;2.4;;;;;;;27.49;41.06641;940.1356;;;;
2023/09/28 13:29:05;;;;;;;2.8;1.8;;;;;;;27.52;40.9375;940.1398;;;;
2023/09/28 13:31:30;;;;;;;2.4;1.9;;;;;;;27.59;39.40137;940.1704;;;;
2023/09/28 13:33:55;;;;;;;3.1;2;;;;;;;27.72;40.82617;940.1468;;;;
2023/09/28 13:36:20;;;;;;;2.2;1.8;;;;;;;27.89;39.66504;940.0698;;;;
2023/09/28 13:38:47;;;;;;;2.8;2;;;;;;;27.54;41.56836;940.103;;;;
2023/09/28 13:41:11;;;;;;;2.2;1.9;;;;;;;27.25;41.03125;940.0739;;;;
2023/09/28 13:43:41;;;;;;;2.4;2;;;;;;;27.16;40.86914;940.1177;;;;
2023/09/28 13:46:05;;;;;;;3.1;2.2;;;;;;;27.35;40.43555;940.1389;;;;
2023/09/28 13:48:31;;;;;;;3;1.9;;;;;;;27.58;40.83691;940.1995;;;;
2023/09/28 13:50:57;;;;;;;3.1;2.2;;;;;;;27.57;41.22754;940.1486;;;;
2023/09/28 13:53:22;;;;;;;3;2.1;;;;;;;27.75;40.35352;940.1566;;;;
2023/09/28 13:55:50;;;;;;;2.7;2.2;;;;;;;27.7;40.43164;940.2239;;;;
2023/09/28 13:58:16;;;;;;;2.8;2.1;;;;;;;27.82;41.22559;940.154;;;;
2023/09/28 14:00:40;;;;;;;3;2.1;;;;;;;27.87;40.15137;940.1683;;;;
2023/09/28 14:03:04;;;;;;;4.9;1.9;;;;;;;27.76;42.25293;940.1917;;;;
2023/09/28 14:05:32;;;;;;;2.6;2;;;;;;;27.57;41.02539;940.1931;;;;
2023/09/28 14:07:56;;;;;;;2.3;1.8;;;;;;;26.97;42.28711;940.1877;;;;
2023/09/28 14:10:21;;;;;;;3.5;2;;;;;;;26.9;42.94238;940.226;;;;
2023/09/28 14:12:48;;;;;;;3.1;1.8;;;;;;;26.81;43.00488;940.2195;;;;
2023/09/28 14:15:17;;;;;;;3.6;2;;;;;;;26.93;42.79102;940.1649;;;;
2023/09/28 14:17:42;;;;;;;3.6;1.9;;;;;;;27.05;42.06836;940.0912;;;;
2023/09/28 14:20:07;;;;;;;2.4;2;;;;;;;27.01;42.33789;940.0511;;;;
2023/09/28 14:22:35;;;;;;;2.5;2;;;;;;;26.98;42.08594;939.9838;;;;
2023/09/28 14:25:00;;;;;;;2.8;2;;;;;;;26.79;42.18652;939.998;;;;
2023/09/28 14:29:40;;;;;;;2.2;1.7;;;;;;;27.09;42.65332;939.9043;;;;
2023/09/28 14:32:05;;;;;;;2.8;2;;;;;;;27.09;41.98926;939.8667;;;;
2023/09/28 14:34:30;;;;;;;4.2;2.4;;;;;;;27.04;41.41504;939.8811;;;;
2023/09/28 14:36:55;;;;;;;3.7;2.2;;;;;;;27;41.13867;939.8787;;;;
2023/09/28 14:39:23;;;;;;;4;2.2;;;;;;;26.93;42.38965;939.9037;;;;
2023/09/28 14:41:48;;;;;;;4;2.3;;;;;;;26.83;42.05957;939.8115;;;;
2023/09/28 14:44:14;;;;;;;3.2;2;;;;;;;26.82;43.00586;939.8234;;;;
2023/09/28 14:46:39;;;;;;;2.6;2;;;;;;;26.8;43.05273;939.7679;;;;
2023/09/28 14:49:04;;;;;;;3.3;2.1;;;;;;;26.73;42.64258;939.7601;;;;
2023/09/28 14:51:35;;;;;;;3.5;2.2;;;;;;;26.64;43.2373;939.8187;;;;
2023/09/28 14:54:02;;;;;;;4.6;2;;;;;;;26.6;42.55859;939.8149;;;;
2023/09/28 14:56:28;;;;;;;3;2.1;;;;;;;26.5;43.2373;939.8156;;;;
2023/09/28 14:58:56;;;;;;;2.5;1.9;;;;;;;26.41;43.73633;939.7225;;;;
2023/09/28 15:01:21;;;;;;;4.2;1.9;;;;;;;26.31;43.99902;939.7762;;;;
2023/09/28 15:03:46;;;;;;;3.9;2.2;;;;;;;26.07;44.61426;939.7556;;;;
2023/09/28 15:06:14;;;;;;;5.5;2.4;;;;;;;26.12;44.76074;939.7502;;;;
2023/09/28 15:08:39;;;;;;;3.4;2.3;;;;;;;26.19;44.93359;939.7761;;;;
2023/09/28 15:11:04;;;;;;;5.9;2.2;;;;;;;26.02;45.56738;939.7319;;;;
2023/09/28 15:13:32;;;;;;;2.9;1.8;;;;;;;26.04;45.13086;939.7442;;;;
2023/09/28 15:15:57;;;;;;;2.6;2;;;;;;;25.96;45.04102;939.728;;;;
2023/09/28 15:18:24;;;;;;;3;2.1;;;;;;;25.99;45.76563;939.7062;;;;
2023/09/28 15:20:49;;;;;;;3.3;1.9;;;;;;;26.01;45.66113;939.7128;;;;
2023/09/28 15:23:15;;;;;;;3.5;2.1;;;;;;;25.98;46.70996;939.675;;;;
2023/09/28 15:25:40;;;;;;;4.2;2.1;;;;;;;25.87;45.76465;939.6805;;;;
2023/09/28 15:28:08;;;;;;;7.4;2.8;;;;;;;25.83;46.63574;939.7333;;;;
2023/09/28 15:30:35;;;;;;;3.5;2.3;;;;;;;25.57;46.42969;939.6561;;;;
2023/09/28 15:32:59;;;;;;;3.7;2.3;;;;;;;25.45;46.5957;939.6478;;;;
2023/09/28 15:35:24;;;;;;;4.5;1.9;;;;;;;25.3;47.77344;939.6018;;;;
2023/09/28 15:37:49;;;;;;;3.6;2.3;;;;;;;25.26;47.2832;939.5892;;;;
2023/09/28 15:40:16;;;;;;;2.6;2;;;;;;;25.09;47.5957;939.6195;;;;
2023/09/28 15:42:41;;;;;;;3.8;2.4;;;;;;;25;47.66992;939.6761;;;;
2023/09/28 15:45:06;;;;;;;5;2.2;;;;;;;24.9;47.91895;939.6542;;;;
2023/09/28 15:47:34;;;;;;;4.1;2.2;;;;;;;24.78;48.49512;939.6981;;;;
2023/09/28 15:50:03;;;;;;;3.2;2;;;;;;;24.8;48.49805;939.6761;;;;